sensor_id;sensor_type;location;lat;lon;timestamp;pressure;altitude;pressure_sealevel;temperature;humidity
11440;BME280;5776;51.814;4.510;2023-05-23T00:01:46;102106.44;;;16.17;100.00
11440;BME280;5776;51.814;4.510;2023-05-23T00:04:12;102120.22;;;16.12;100.00
11440;BME280;5776;51.814;4.510;2023-05-23T00:06:42;102111.44;;;16.15;100.00
11440;BME280;5776;51.814;4.510;2023-05-23T00:09:14;102107.63;;;16.11;100.00
11440;BME280;5776;51.814;4.510;2023-05-23T00:11:40;102106.50;;;16.12;100.00
11440;BME280;5776;51.814;4.510;2023-05-23T00:14:12;102106.59;;;16.07;100.00
11440;BME280;5776;51.814;4.510;2023-05-23T00:16:43;102108.00;;;16.05;100.00
11440;BME280;5776;51.814;4.510;2023-05-23T00:19:10;102116.44;;;16.08;100.00
11440;BME280;5776;51.814;4.510;2023-05-23T00:21:40;102118.13;;;16.04;100.00
11440;BME280;5776;51.814;4.510;2023-05-23T00:24:06;102114.88;;;16.02;100.00
11440;BME280;5776;51.814;4.510;2023-05-23T00:26:34;102121.19;;;16.03;100.00
11440;BME280;5776;51.814;4.510;2023-05-23T00:29:00;102109.97;;;15.99;100.00
11440;BME280;5776;51.814;4.510;2023-05-23T00:31:25;102117.13;;;16.00;100.00
11440;BME280;5776;51.814;4.510;2023-05-23T00:33:51;102114.38;;;16.00;100.00
11440;BME280;5776;51.814;4.510;2023-05-23T00:36:17;102109.97;;;15.99;100.00
11440;BME280;5776;51.814;4.510;2023-05-23T00:38:43;102120.13;;;15.98;100.00
11440;BME280;5776;51.814;4.510;2023-05-23T00:41:11;102110.06;;;15.94;100.00
11440;BME280;5776;51.814;4.510;2023-05-23T00:43:37;102112.78;;;15.94;100.00
11440;BME280;5776;51.814;4.510;2023-05-23T00:46:04;102116.66;;;15.93;100.00
11440;BME280;5776;51.814;4.510;2023-05-23T00:48:30;102120.84;;;15.85;100.00
11440;BME280;5776;51.814;4.510;2023-05-23T00:50:57;102125.50;;;15.85;100.00
11440;BME280;5776;51.814;4.510;2023-05-23T00:53:23;102134.25;;;15.87;100.00
11440;BME280;5776;51.814;4.510;2023-05-23T00:55:49;102135.38;;;15.86;100.00
11440;BME280;5776;51.814;4.510;2023-05-23T00:58:16;102124.94;;;15.88;100.00
11440;BME280;5776;51.814;4.510;2023-05-23T01:00:42;102129.34;;;15.84;100.00
11440;BME280;5776;51.814;4.510;2023-05-23T01:03:12;102142.00;;;15.80;100.00
11440;BME280;5776;51.814;4.510;2023-05-23T01:05:43;102137.91;;;15.77;100.00
11440;BME280;5776;51.814;4.510;2023-05-23T01:08:09;102138.69;;;15.83;100.00
11440;BME280;5776;51.814;4.510;2023-05-23T01:10:35;102128.81;;;15.82;100.00
11440;BME280;5776;51.814;4.510;2023-05-23T01:13:21;102131.03;;;15.80;100.00
11440;BME280;5776;51.814;4.510;2023-05-23T01:18:40;102138.50;;;15.74;100.00
11440;BME280;5776;51.814;4.510;2023-05-23T01:21:16;102137.09;;;15.76;100.00
11440;BME280;5776;51.814;4.510;2023-05-23T01:29:37;102127.84;;;15.67;100.00
11440;BME280;5776;51.814;4.510;2023-05-23T01:32:08;102123.78;;;15.65;100.00
11440;BME280;5776;51.814;4.510;2023-05-23T01:34:37;102134.44;;;15.66;100.00
11440;BME280;5776;51.814;4.510;2023-05-23T01:37:08;102133.97;;;15.59;100.00
11440;BME280;5776;51.814;4.510;2023-05-23T01:39:36;102132.88;;;15.60;100.00
11440;BME280;5776;51.814;4.510;2023-05-23T01:42:02;102136.19;;;15.57;100.00
11440;BME280;5776;51.814;4.510;2023-05-23T01:44:30;102142.78;;;15.56;100.00
11440;BME280;5776;51.814;4.510;2023-05-23T01:46:56;102141.91;;;15.61;100.00
11440;BME280;5776;51.814;4.510;2023-05-23T01:49:23;102147.38;;;15.61;100.00
11440;BME280;5776;51.814;4.510;2023-05-23T01:51:49;102133.38;;;15.62;100.00
11440;BME280;5776;51.814;4.510;2023-05-23T01:54:15;102139.72;;;15.63;100.00
11440;BME280;5776;51.814;4.510;2023-05-23T01:56:44;102141.59;;;15.62;100.00
11440;BME280;5776;51.814;4.510;2023-05-23T01:59:11;102144.84;;;15.69;100.00
11440;BME280;5776;51.814;4.510;2023-05-23T02:01:37;102151.13;;;15.70;100.00
11440;BME280;5776;51.814;4.510;2023-05-23T02:04:04;102155.56;;;15.66;100.00
11440;BME280;5776;51.814;4.510;2023-05-23T02:06:30;102156.13;;;15.63;100.00
11440;BME280;5776;51.814;4.510;2023-05-23T02:08:56;102152.28;;;15.64;100.00
11440;BME280;5776;51.814;4.510;2023-05-23T02:11:22;102152.56;;;15.62;100.00
11440;BME280;5776;51.814;4.510;2023-05-23T02:13:47;102147.38;;;15.61;100.00
11440;BME280;5776;51.814;4.510;2023-05-23T02:16:14;102147.13;;;15.57;100.00
11440;BME280;5776;51.814;4.510;2023-05-23T02:18:40;102145.25;;;15.58;100.00
11440;BME280;5776;51.814;4.510;2023-05-23T02:21:06;102141.09;;;15.60;100.00
11440;BME280;5776;51.814;4.510;2023-05-23T02:23:32;102143.25;;;15.63;100.00
11440;BME280;5776;51.814;4.510;2023-05-23T02:25:58;102142.72;;;15.61;100.00
11440;BME280;5776;51.814;4.510;2023-05-23T02:28:23;102143.53;;;15.62;100.00
11440;BME280;5776;51.814;4.510;2023-05-23T02:30:49;102160.28;;;15.60;100.00
11440;BME280;5776;51.814;4.510;2023-05-23T02:33:15;102156.69;;;15.60;100.00
11440;BME280;5776;51.814;4.510;2023-05-23T02:35:41;102157.81;;;15.59;100.00
11440;BME280;5776;51.814;4.510;2023-05-23T02:38:07;102158.34;;;15.61;100.00
11440;BME280;5776;51.814;4.510;2023-05-23T02:40:33;102161.34;;;15.59;100.00
11440;BME280;5776;51.814;4.510;2023-05-23T02:42:59;102170.16;;;15.56;100.00
11440;BME280;5776;51.814;4.510;2023-05-23T02:45:25;102167.69;;;15.54;100.00
11440;BME280;5776;51.814;4.510;2023-05-23T02:47:51;102178.16;;;15.52;100.00
11440;BME280;5776;51.814;4.510;2023-05-23T02:50:16;102176.22;;;15.53;100.00
11440;BME280;5776;51.814;4.510;2023-05-23T02:52:42;102183.31;;;15.54;100.00
11440;BME280;5776;51.814;4.510;2023-05-23T02:55:08;102183.63;;;15.52;100.00
11440;BME280;5776;51.814;4.510;2023-05-23T02:57:34;102180.63;;;15.49;100.00
11440;BME280;5776;51.814;4.510;2023-05-23T03:00:01;102179.81;;;15.48;100.00
11440;BME280;5776;51.814;4.510;2023-05-23T03:02:27;102180.69;;;15.44;100.00
11440;BME280;5776;51.814;4.510;2023-05-23T03:04:53;102179.88;;;15.43;100.00
11440;BME280;5776;51.814;4.510;2023-05-23T03:07:20;102185.88;;;15.45;100.00
11440;BME280;5776;51.814;4.510;2023-05-23T03:09:46;102186.97;;;15.44;100.00
11440;BME280;5776;51.814;4.510;2023-05-23T03:12:12;102187.31;;;15.38;100.00
11440;BME280;5776;51.814;4.510;2023-05-23T03:14:38;102186.75;;;15.41;100.00
11440;BME280;5776;51.814;4.510;2023-05-23T03:17:04;102195.50;;;15.43;100.00
11440;BME280;5776;51.814;4.510;2023-05-23T03:19:30;102182.88;;;15.42;100.00
11440;BME280;5776;51.814;4.510;2023-05-23T03:21:56;102188.13;;;15.38;100.00
11440;BME280;5776;51.814;4.510;2023-05-23T03:24:22;102189.00;;;15.33;100.00
11440;BME280;5776;51.814;4.510;2023-05-23T03:26:48;102185.97;;;15.35;100.00
11440;BME280;5776;51.814;4.510;2023-05-23T03:29:13;102190.06;;;15.38;100.00
11440;BME280;5776;51.814;4.510;2023-05-23T03:31:39;102184.91;;;15.31;100.00
11440;BME280;5776;51.814;4.510;2023-05-23T03:34:05;102187.63;;;15.31;100.00
11440;BME280;5776;51.814;4.510;2023-05-23T03:36:31;102189.84;;;15.29;100.00
11440;BME280;5776;51.814;4.510;2023-05-23T03:39:00;102192.88;;;15.27;100.00
11440;BME280;5776;51.814;4.510;2023-05-23T03:41:26;102192.88;;;15.27;100.00
11440;BME280;5776;51.814;4.510;2023-05-23T03:43:52;102195.91;;;15.26;100.00
11440;BME280;5776;51.814;4.510;2023-05-23T03:46:18;102203.25;;;15.30;100.00
11440;BME280;5776;51.814;4.510;2023-05-23T03:48:44;102205.22;;;15.25;100.00
11440;BME280;5776;51.814;4.510;2023-05-23T03:51:10;102205.72;;;15.27;100.00
11440;BME280;5776;51.814;4.510;2023-05-23T03:53:38;102214.47;;;15.29;100.00
11440;BME280;5776;51.814;4.510;2023-05-23T03:56:04;102211.50;;;15.25;100.00
11440;BME280;5776;51.814;4.510;2023-05-23T03:58:30;102214.03;;;15.17;100.00
11440;BME280;5776;51.814;4.510;2023-05-23T04:00:56;102220.69;;;15.05;100.00
11440;BME280;5776;51.814;4.510;2023-05-23T04:03:22;102218.53;;;15.02;100.00
11440;BME280;5776;51.814;4.510;2023-05-23T04:05:48;102222.88;;;15.03;100.00
11440;BME280;5776;51.814;4.510;2023-05-23T04:08:14;102227.78;;;15.06;100.00
11440;BME280;5776;51.814;4.510;2023-05-23T04:10:40;102219.88;;;15.05;100.00
11440;BME280;5776;51.814;4.510;2023-05-23T04:13:06;102230.28;;;15.03;100.00
11440;BME280;5776;51.814;4.510;2023-05-23T04:15:32;102227.50;;;15.08;100.00
11440;BME280;5776;51.814;4.510;2023-05-23T04:17:59;102226.16;;;15.05;100.00
11440;BME280;5776;51.814;4.510;2023-05-23T04:20:25;102237.16;;;15.00;100.00
11440;BME280;5776;51.814;4.510;2023-05-23T04:22:51;102243.69;;;14.99;100.00
11440;BME280;5776;51.814;4.510;2023-05-23T04:25:16;102237.09;;;15.05;98.98
11440;BME280;5776;51.814;4.510;2023-05-23T04:27:44;102237.38;;;15.04;99.79
11440;BME280;5776;51.814;4.510;2023-05-23T04:30:12;102250.22;;;15.08;99.67
11440;BME280;5776;51.814;4.510;2023-05-23T04:32:38;102247.50;;;15.03;99.66
11440;BME280;5776;51.814;4.510;2023-05-23T04:35:05;102251.38;;;15.02;98.82
11440;BME280;5776;51.814;4.510;2023-05-23T04:37:31;102251.66;;;14.96;98.22
11440;BME280;5776;51.814;4.510;2023-05-23T04:39:58;102255.22;;;14.96;98.52
11440;BME280;5776;51.814;4.510;2023-05-23T04:42:27;102257.69;;;14.98;98.04
11440;BME280;5776;51.814;4.510;2023-05-23T04:44:54;102257.09;;;15.01;97.83
11440;BME280;5776;51.814;4.510;2023-05-23T04:47:22;102262.91;;;14.89;96.86
11440;BME280;5776;51.814;4.510;2023-05-23T04:49:49;102260.22;;;14.84;97.05
11440;BME280;5776;51.814;4.510;2023-05-23T04:52:18;102259.41;;;14.83;98.31
11440;BME280;5776;51.814;4.510;2023-05-23T04:54:45;102262.09;;;14.88;98.06
11440;BME280;5776;51.814;4.510;2023-05-23T04:57:11;102269.19;;;14.89;96.81
11440;BME280;5776;51.814;4.510;2023-05-23T04:59:37;102276.31;;;14.90;97.17
11440;BME280;5776;51.814;4.510;2023-05-23T05:02:03;102264.59;;;14.85;96.91
11440;BME280;5776;51.814;4.510;2023-05-23T05:04:30;102279.09;;;14.85;97.00
11440;BME280;5776;51.814;4.510;2023-05-23T05:06:56;102274.44;;;14.81;96.59
11440;BME280;5776;51.814;4.510;2023-05-23T05:09:22;102276.94;;;14.77;96.62
11440;BME280;5776;51.814;4.510;2023-05-23T05:11:49;102275.81;;;14.83;96.05
11440;BME280;5776;51.814;4.510;2023-05-23T05:14:15;102278.53;;;14.83;96.40
11440;BME280;5776;51.814;4.510;2023-05-23T05:16:41;102279.13;;;14.80;96.06
11440;BME280;5776;51.814;4.510;2023-05-23T05:19:07;102287.31;;;14.80;97.10
11440;BME280;5776;51.814;4.510;2023-05-23T05:21:32;102299.31;;;14.84;96.47
11440;BME280;5776;51.814;4.510;2023-05-23T05:23:58;102284.59;;;14.75;96.47
11440;BME280;5776;51.814;4.510;2023-05-23T05:26:24;102287.34;;;14.75;96.07
11440;BME280;5776;51.814;4.510;2023-05-23T05:28:51;102285.19;;;14.62;95.65
11440;BME280;5776;51.814;4.510;2023-05-23T05:31:18;102289.91;;;14.41;94.01
11440;BME280;5776;51.814;4.510;2023-05-23T05:33:44;102303.06;;;14.29;94.00
11440;BME280;5776;51.814;4.510;2023-05-23T05:36:10;102299.53;;;14.23;94.28
11440;BME280;5776;51.814;4.510;2023-05-23T05:38:36;102302.81;;;14.20;94.28
11440;BME280;5776;51.814;4.510;2023-05-23T05:41:03;102308.28;;;14.15;94.58
11440;BME280;5776;51.814;4.510;2023-05-23T05:43:29;102301.72;;;14.11;94.35
11440;BME280;5776;51.814;4.510;2023-05-23T05:45:55;102308.03;;;14.06;94.36
11440;BME280;5776;51.814;4.510;2023-05-23T05:48:21;102308.84;;;14.01;94.55
11440;BME280;5776;51.814;4.510;2023-05-23T05:50:47;102302.88;;;13.99;95.32
11440;BME280;5776;51.814;4.510;2023-05-23T05:53:13;102321.16;;;13.94;95.31
11440;BME280;5776;51.814;4.510;2023-05-23T05:55:39;102320.31;;;13.98;94.44
11440;BME280;5776;51.814;4.510;2023-05-23T05:58:05;102321.41;;;14.08;94.59
11440;BME280;5776;51.814;4.510;2023-05-23T06:00:31;102327.44;;;13.99;93.75
11440;BME280;5776;51.814;4.510;2023-05-23T06:02:57;102328.28;;;13.90;94.08
11440;BME280;5776;51.814;4.510;2023-05-23T06:05:23;102321.97;;;13.84;95.30
11440;BME280;5776;51.814;4.510;2023-05-23T06:07:49;102331.81;;;13.90;96.03
11440;BME280;5776;51.814;4.510;2023-05-23T06:10:16;102320.88;;;13.85;96.35
11440;BME280;5776;51.814;4.510;2023-05-23T06:12:42;102333.72;;;13.90;95.90
11440;BME280;5776;51.814;4.510;2023-05-23T06:15:08;102330.72;;;13.91;95.99
11440;BME280;5776;51.814;4.510;2023-05-23T06:17:34;102333.19;;;13.88;96.83
11440;BME280;5776;51.814;4.510;2023-05-23T06:20:00;102343.00;;;13.89;97.39
11440;BME280;5776;51.814;4.510;2023-05-23T06:22:26;102338.34;;;13.89;96.96
11440;BME280;5776;51.814;4.510;2023-05-23T06:24:52;102340.81;;;13.91;97.37
11440;BME280;5776;51.814;4.510;2023-05-23T06:27:17;102341.94;;;13.85;98.32
11440;BME280;5776;51.814;4.510;2023-05-23T06:29:43;102346.53;;;13.79;99.39
11440;BME280;5776;51.814;4.510;2023-05-23T06:32:09;102345.19;;;13.76;99.74
11440;BME280;5776;51.814;4.510;2023-05-23T06:34:35;102342.44;;;13.81;100.00
11440;BME280;5776;51.814;4.510;2023-05-23T06:37:01;102344.38;;;13.81;99.59
11440;BME280;5776;51.814;4.510;2023-05-23T06:39:27;102346.28;;;13.75;100.00
11440;BME280;5776;51.814;4.510;2023-05-23T06:41:53;102357.22;;;13.75;100.00
11440;BME280;5776;51.814;4.510;2023-05-23T06:44:19;102357.47;;;13.74;100.00
11440;BME280;5776;51.814;4.510;2023-05-23T06:46:45;102358.31;;;13.74;100.00
11440;BME280;5776;51.814;4.510;2023-05-23T06:49:12;102347.66;;;13.68;100.00
11440;BME280;5776;51.814;4.510;2023-05-23T06:51:38;102350.94;;;13.70;100.00
11440;BME280;5776;51.814;4.510;2023-05-23T06:54:04;102351.44;;;13.72;100.00
11440;BME280;5776;51.814;4.510;2023-05-23T06:56:30;102352.00;;;13.74;100.00
11440;BME280;5776;51.814;4.510;2023-05-23T06:58:57;102352.00;;;13.74;100.00
11440;BME280;5776;51.814;4.510;2023-05-23T07:01:22;102359.66;;;13.72;100.00
11440;BME280;5776;51.814;4.510;2023-05-23T07:03:48;102362.94;;;13.69;100.00
11440;BME280;5776;51.814;4.510;2023-05-23T07:06:14;102369.50;;;13.73;100.00
11440;BME280;5776;51.814;4.510;2023-05-23T07:08:40;102367.56;;;13.73;100.00
11440;BME280;5776;51.814;4.510;2023-05-23T07:11:06;102369.75;;;13.71;100.00
11440;BME280;5776;51.814;4.510;2023-05-23T07:13:32;102363.47;;;13.71;100.00
11440;BME280;5776;51.814;4.510;2023-05-23T07:15:58;102377.69;;;13.73;100.00
11440;BME280;5776;51.814;4.510;2023-05-23T07:18:24;102377.69;;;13.68;100.00
11440;BME280;5776;51.814;4.510;2023-05-23T07:20:51;102376.56;;;13.64;100.00
11440;BME280;5776;51.814;4.510;2023-05-23T07:23:17;102383.41;;;13.66;99.85
11440;BME280;5776;51.814;4.510;2023-05-23T07:25:43;102386.44;;;13.75;98.89
11440;BME280;5776;51.814;4.510;2023-05-23T07:28:09;102388.63;;;13.83;99.36
11440;BME280;5776;51.814;4.510;2023-05-23T07:30:35;102389.16;;;13.85;99.00
11440;BME280;5776;51.814;4.510;2023-05-23T07:33:01;102390.53;;;13.88;98.48
11440;BME280;5776;51.814;4.510;2023-05-23T07:35:29;102381.78;;;13.96;98.03
11440;BME280;5776;51.814;4.510;2023-05-23T07:37:55;102387.53;;;13.99;96.97
11440;BME280;5776;51.814;4.510;2023-05-23T07:40:22;102379.03;;;14.06;96.85
11440;BME280;5776;51.814;4.510;2023-05-23T07:42:48;102387.53;;;14.10;96.37
11440;BME280;5776;51.814;4.510;2023-05-23T07:45:14;102385.31;;;14.07;95.59
11440;BME280;5776;51.814;4.510;2023-05-23T07:47:40;102383.13;;;14.14;96.47
11440;BME280;5776;51.814;4.510;2023-05-23T07:50:07;102389.16;;;14.21;95.69
11440;BME280;5776;51.814;4.510;2023-05-23T07:52:34;102382.03;;;14.30;95.50
11440;BME280;5776;51.814;4.510;2023-05-23T07:55:00;102401.16;;;14.35;95.62
11440;BME280;5776;51.814;4.510;2023-05-23T07:57:26;102394.59;;;14.31;94.37
11440;BME280;5776;51.814;4.510;2023-05-23T07:59:52;102395.16;;;14.33;95.10
11440;BME280;5776;51.814;4.510;2023-05-23T08:02:19;102390.78;;;14.32;94.47
11440;BME280;5776;51.814;4.510;2023-05-23T08:04:47;102403.34;;;14.33;94.55
11440;BME280;5776;51.814;4.510;2023-05-23T08:07:13;102395.69;;;14.35;94.69
11440;BME280;5776;51.814;4.510;2023-05-23T08:09:39;102401.16;;;14.30;93.77
11440;BME280;5776;51.814;4.510;2023-05-23T08:12:06;102398.13;;;14.37;94.10
11440;BME280;5776;51.814;4.510;2023-05-23T08:14:32;102401.69;;;14.42;93.85
11440;BME280;5776;51.814;4.510;2023-05-23T08:16:58;102406.06;;;14.38;94.51
11440;BME280;5776;51.814;4.510;2023-05-23T08:19:24;102399.22;;;14.41;92.55
11440;BME280;5776;51.814;4.510;2023-05-23T08:21:50;102406.63;;;14.35;90.71
11440;BME280;5776;51.814;4.510;2023-05-23T08:24:18;102409.63;;;14.34;90.74
11440;BME280;5776;51.814;4.510;2023-05-23T08:26:45;102402.78;;;14.36;91.04
11440;BME280;5776;51.814;4.510;2023-05-23T08:29:11;102411.53;;;14.43;92.09
11440;BME280;5776;51.814;4.510;2023-05-23T08:31:37;102408.81;;;14.38;91.38
11440;BME280;5776;51.814;4.510;2023-05-23T08:34:03;102414.81;;;14.40;91.70
11440;BME280;5776;51.814;4.510;2023-05-23T08:36:29;102417.81;;;14.44;91.29
11440;BME280;5776;51.814;4.510;2023-05-23T08:38:56;102414.00;;;14.50;90.98
11440;BME280;5776;51.814;4.510;2023-05-23T08:41:23;102416.19;;;14.58;92.46
11440;BME280;5776;51.814;4.510;2023-05-23T08:43:50;102416.75;;;14.55;92.33
11440;BME280;5776;51.814;4.510;2023-05-23T08:46:16;102419.19;;;14.57;93.07
11440;BME280;5776;51.814;4.510;2023-05-23T08:48:47;102419.16;;;14.62;93.86
11440;BME280;5776;51.814;4.510;2023-05-23T08:51:16;102413.69;;;14.67;93.22
11440;BME280;5776;51.814;4.510;2023-05-23T08:53:44;102426.28;;;14.68;92.91
11440;BME280;5776;51.814;4.510;2023-05-23T08:56:12;102426.28;;;14.68;92.98
11440;BME280;5776;51.814;4.510;2023-05-23T08:58:38;102424.63;;;14.67;92.42
11440;BME280;5776;51.814;4.510;2023-05-23T09:01:07;102426.53;;;14.66;91.40
11440;BME280;5776;51.814;4.510;2023-05-23T09:03:35;102431.75;;;14.68;92.26
11440;BME280;5776;51.814;4.510;2023-05-23T09:06:08;102427.91;;;14.64;91.82
11440;BME280;5776;51.814;4.510;2023-05-23T09:08:35;102435.84;;;14.71;92.92
11440;BME280;5776;51.814;4.510;2023-05-23T09:11:01;102429.81;;;14.79;92.50
11440;BME280;5776;51.814;4.510;2023-05-23T09:13:29;102436.91;;;14.85;92.67
11440;BME280;5776;51.814;4.510;2023-05-23T09:16:02;102436.91;;;14.90;91.82
11440;BME280;5776;51.814;4.510;2023-05-23T09:18:33;102432.75;;;14.98;92.64
11440;BME280;5776;51.814;4.510;2023-05-23T09:21:01;102446.44;;;14.98;92.51
11440;BME280;5776;51.814;4.510;2023-05-23T09:23:34;102437.94;;;14.99;91.84
11440;BME280;5776;51.814;4.510;2023-05-23T09:26:04;102444.25;;;15.00;92.59
11440;BME280;5776;51.814;4.510;2023-05-23T09:28:35;102444.78;;;15.02;93.48
11440;BME280;5776;51.814;4.510;2023-05-23T09:31:06;102447.22;;;15.08;91.96
11440;BME280;5776;51.814;4.510;2023-05-23T09:33:47;102443.66;;;15.13;91.08
11440;BME280;5776;51.814;4.510;2023-05-23T09:36:13;102443.09;;;15.16;91.73
11440;BME280;5776;51.814;4.510;2023-05-23T09:38:40;102449.66;;;15.20;91.33
11440;BME280;5776;51.814;4.510;2023-05-23T09:41:07;102438.94;;;15.24;91.54
11440;BME280;5776;51.814;4.510;2023-05-23T09:43:33;102444.44;;;15.19;92.07
11440;BME280;5776;51.814;4.510;2023-05-23T09:46:06;102442.50;;;15.24;92.31
11440;BME280;5776;51.814;4.510;2023-05-23T09:48:32;102449.03;;;15.33;91.58
11440;BME280;5776;51.814;4.510;2023-05-23T09:51:03;102440.78;;;15.39;91.30
11440;BME280;5776;51.814;4.510;2023-05-23T09:53:29;102450.06;;;15.48;90.53
11440;BME280;5776;51.814;4.510;2023-05-23T09:55:57;102440.16;;;15.52;90.74
11440;BME280;5776;51.814;4.510;2023-05-23T09:58:25;102453.31;;;15.55;89.59
11440;BME280;5776;51.814;4.510;2023-05-23T10:00:52;102454.91;;;15.61;89.49
11440;BME280;5776;51.814;4.510;2023-05-23T10:03:38;102455.41;;;15.68;89.53
11440;BME280;5776;51.814;4.510;2023-05-23T10:06:25;102447.78;;;15.70;89.43
11440;BME280;5776;51.814;4.510;2023-05-23T10:09:03;102456.00;;;15.70;90.10
11440;BME280;5776;51.814;4.510;2023-05-23T10:14:37;102445.00;;;15.75;89.71
11440;BME280;5776;51.814;4.510;2023-05-23T10:17:18;102452.38;;;15.80;89.32
11440;BME280;5776;51.814;4.510;2023-05-23T10:19:51;102458.38;;;15.77;88.18
11440;BME280;5776;51.814;4.510;2023-05-23T10:22:19;102465.56;;;15.73;89.63
11440;BME280;5776;51.814;4.510;2023-05-23T10:24:47;102455.16;;;15.75;89.63
11440;BME280;5776;51.814;4.510;2023-05-23T10:27:13;102454.81;;;15.82;89.63
11440;BME280;5776;51.814;4.510;2023-05-23T10:29:40;102466.31;;;15.84;89.78
11440;BME280;5776;51.814;4.510;2023-05-23T10:32:06;102468.81;;;15.80;89.29
11440;BME280;5776;51.814;4.510;2023-05-23T10:37:35;102467.94;;;15.85;91.96
11440;BME280;5776;51.814;4.510;2023-05-23T10:43:05;102468.53;;;15.76;90.73
11440;BME280;5776;51.814;4.510;2023-05-23T10:45:40;102468.50;;;15.82;90.52
11440;BME280;5776;51.814;4.510;2023-05-23T10:51:00;102470.47;;;15.76;90.33
11440;BME280;5776;51.814;4.510;2023-05-23T10:53:28;102466.09;;;15.75;90.03
11440;BME280;5776;51.814;4.510;2023-05-23T10:55:55;102467.94;;;15.85;88.90
11440;BME280;5776;51.814;4.510;2023-05-23T10:58:22;102467.09;;;15.89;88.80
11440;BME280;5776;51.814;4.510;2023-05-23T11:00:56;102469.63;;;15.81;89.28
11440;BME280;5776;51.814;4.510;2023-05-23T11:03:35;102466.59;;;15.77;89.92
11440;BME280;5776;51.814;4.510;2023-05-23T11:06:03;102469.03;;;15.84;88.60
11440;BME280;5776;51.814;4.510;2023-05-23T11:08:39;102473.34;;;15.95;88.32
11440;BME280;5776;51.814;4.510;2023-05-23T11:11:07;102473.34;;;15.95;87.85
11440;BME280;5776;51.814;4.510;2023-05-23T11:13:53;102467.84;;;16.00;86.40
11440;BME280;5776;51.814;4.510;2023-05-23T11:22:16;102480.44;;;16.01;87.19
11440;BME280;5776;51.814;4.510;2023-05-23T11:24:55;102474.94;;;16.01;87.75
11440;BME280;5776;51.814;4.510;2023-05-23T11:30:09;102484.75;;;16.07;87.72
11440;BME280;5776;51.814;4.510;2023-05-23T11:32:38;102495.19;;;16.10;86.24
11440;BME280;5776;51.814;4.510;2023-05-23T11:35:05;102488.81;;;16.15;86.46
11440;BME280;5776;51.814;4.510;2023-05-23T11:37:32;102496.22;;;16.14;87.14
11440;BME280;5776;51.814;4.510;2023-05-23T11:42:44;102484.16;;;16.15;86.48
11440;BME280;5776;51.814;4.510;2023-05-23T11:45:10;102496.50;;;16.18;87.29
11440;BME280;5776;51.814;4.510;2023-05-23T11:47:40;102491.56;;;16.15;86.17
11440;BME280;5776;51.814;4.510;2023-05-23T11:50:06;102491.56;;;16.15;86.09
11440;BME280;5776;51.814;4.510;2023-05-23T11:52:33;102500.09;;;16.13;87.15
11440;BME280;5776;51.814;4.510;2023-05-23T11:55:00;102498.13;;;16.19;87.46
11440;BME280;5776;51.814;4.510;2023-05-23T11:57:26;102492.34;;;16.20;87.62
11440;BME280;5776;51.814;4.510;2023-05-23T11:59:53;102487.91;;;16.25;85.75
11440;BME280;5776;51.814;4.510;2023-05-23T12:02:20;102489.28;;;16.27;85.26
11440;BME280;5776;51.814;4.510;2023-05-23T12:04:50;102491.50;;;16.25;85.76
11440;BME280;5776;51.814;4.510;2023-05-23T12:07:19;102491.16;;;16.32;86.02
11440;BME280;5776;51.814;4.510;2023-05-23T12:09:45;102497.72;;;16.36;85.50
11440;BME280;5776;51.814;4.510;2023-05-23T12:12:12;102506.47;;;16.38;85.64
11440;BME280;5776;51.814;4.510;2023-05-23T12:14:38;102506.97;;;16.40;85.68
11440;BME280;5776;51.814;4.510;2023-05-23T12:17:12;102500.69;;;16.39;85.98
11440;BME280;5776;51.814;4.510;2023-05-23T12:19:39;102506.44;;;16.43;85.79
11440;BME280;5776;51.814;4.510;2023-05-23T12:22:06;102503.69;;;16.43;85.07
11440;BME280;5776;51.814;4.510;2023-05-23T12:24:33;102498.22;;;16.43;84.36
11440;BME280;5776;51.814;4.510;2023-05-23T12:27:01;102504.25;;;16.40;86.07
11440;BME280;5776;51.814;4.510;2023-05-23T12:29:32;102496.91;;;16.35;85.20
11440;BME280;5776;51.814;4.510;2023-05-23T12:32:00;102506.56;;;16.28;84.51
11440;BME280;5776;51.814;4.510;2023-05-23T12:34:26;102497.53;;;16.22;85.20
11440;BME280;5776;51.814;4.510;2023-05-23T12:36:59;102504.66;;;16.23;85.92
11440;BME280;5776;51.814;4.510;2023-05-23T12:39:29;102497.31;;;16.18;85.55
11440;BME280;5776;51.814;4.510;2023-05-23T12:42:06;102498.84;;;16.30;85.09
11440;BME280;5776;51.814;4.510;2023-05-23T12:44:33;102492.28;;;16.31;84.91
11440;BME280;5776;51.814;4.510;2023-05-23T12:46:58;102492.81;;;16.33;85.41
11440;BME280;5776;51.814;4.510;2023-05-23T12:49:24;102489.44;;;16.41;85.25
11440;BME280;5776;51.814;4.510;2023-05-23T12:51:50;102503.09;;;16.46;85.12
11440;BME280;5776;51.814;4.510;2023-05-23T12:54:16;102494.84;;;16.51;85.29
11440;BME280;5776;51.814;4.510;2023-05-23T12:56:42;102493.81;;;16.42;85.04
11440;BME280;5776;51.814;4.510;2023-05-23T12:59:08;102494.34;;;16.44;84.75
11440;BME280;5776;51.814;4.510;2023-05-23T13:01:34;102503.09;;;16.46;85.16
11440;BME280;5776;51.814;4.510;2023-05-23T13:04:01;102493.22;;;16.45;84.38
11440;BME280;5776;51.814;4.510;2023-05-23T13:06:27;102499.03;;;16.44;83.71
11440;BME280;5776;51.814;4.510;2023-05-23T13:08:53;102487.25;;;16.43;84.46
11440;BME280;5776;51.814;4.510;2023-05-23T13:11:20;102503.34;;;16.50;84.46
11440;BME280;5776;51.814;4.510;2023-05-23T13:13:47;102499.28;;;16.42;86.09
11440;BME280;5776;51.814;4.510;2023-05-23T13:16:14;102492.81;;;16.33;86.70
11440;BME280;5776;51.814;4.510;2023-05-23T13:18:40;102493.91;;;16.32;85.94
11440;BME280;5776;51.814;4.510;2023-05-23T13:21:07;102499.97;;;16.29;85.57
11440;BME280;5776;51.814;4.510;2023-05-23T13:23:33;102509.84;;;16.25;86.36
11440;BME280;5776;51.814;4.510;2023-05-23T13:26:00;102501.06;;;16.28;86.30
11440;BME280;5776;51.814;4.510;2023-05-23T13:28:26;102506.56;;;16.28;86.62